sensor_id;sensor_type;location;lat;lon;timestamp;temperature;humidity
33492;DHT22;20010;51.488;7.232;2022-08-16T00:01:22;20.60;99.90
33492;DHT22;20010;51.488;7.232;2022-08-16T00:03:51;20.60;99.90
33492;DHT22;20010;51.488;7.232;2022-08-16T00:06:19;20.60;99.90
33492;DHT22;20010;51.488;7.232;2022-08-16T00:08:46;20.50;99.90
33492;DHT22;20010;51.488;7.232;2022-08-16T00:11:14;20.50;99.90
33492;DHT22;20010;51.488;7.232;2022-08-16T00:13:44;20.40;99.90
33492;DHT22;20010;51.488;7.232;2022-08-16T00:16:26;20.40;99.90
33492;DHT22;20010;51.488;7.232;2022-08-16T00:19:16;20.40;99.90
33492;DHT22;20010;51.488;7.232;2022-08-16T00:21:43;20.30;99.90
33492;DHT22;20010;51.488;7.232;2022-08-16T00:24:18;20.30;99.90
33492;DHT22;20010;51.488;7.232;2022-08-16T00:27:02;20.20;99.90
33492;DHT22;20010;51.488;7.232;2022-08-16T00:29:30;20.20;99.90
33492;DHT22;20010;51.488;7.232;2022-08-16T00:31:58;20.20;99.90
33492;DHT22;20010;51.488;7.232;2022-08-16T00:34:34;20.20;99.90
33492;DHT22;20010;51.488;7.232;2022-08-16T00:37:20;20.20;99.90
33492;DHT22;20010;51.488;7.232;2022-08-16T00:39:52;20.10;99.90
33492;DHT22;20010;51.488;7.232;2022-08-16T00:42:29;20.20;99.90
33492;DHT22;20010;51.488;7.232;2022-08-16T00:47:45;20.10;99.90
33492;DHT22;20010;51.488;7.232;2022-08-16T00:50:16;20.10;99.90
33492;DHT22;20010;51.488;7.232;2022-08-16T00:52:44;20.10;99.90
33492;DHT22;20010;51.488;7.232;2022-08-16T00:55:19;20.10;99.90
33492;DHT22;20010;51.488;7.232;2022-08-16T00:57:49;20.00;99.90
33492;DHT22;20010;51.488;7.232;2022-08-16T01:00:30;20.10;99.90
33492;DHT22;20010;51.488;7.232;2022-08-16T01:03:01;20.10;99.90
33492;DHT22;20010;51.488;7.232;2022-08-16T01:05:29;20.10;99.90
33492;DHT22;20010;51.488;7.232;2022-08-16T01:07:59;20.10;99.90
33492;DHT22;20010;51.488;7.232;2022-08-16T01:10:28;20.10;99.90
33492;DHT22;20010;51.488;7.232;2022-08-16T01:13:11;20.10;99.90
33492;DHT22;20010;51.488;7.232;2022-08-16T01:15:44;20.10;99.90
33492;DHT22;20010;51.488;7.232;2022-08-16T01:18:20;20.10;99.90
33492;DHT22;20010;51.488;7.232;2022-08-16T01:24:14;20.20;99.90
33492;DHT22;20010;51.488;7.232;2022-08-16T01:27:11;20.20;99.90
33492;DHT22;20010;51.488;7.232;2022-08-16T01:29:54;20.20;99.90
33492;DHT22;20010;51.488;7.232;2022-08-16T01:32:27;20.20;99.90
33492;DHT22;20010;51.488;7.232;2022-08-16T01:35:04;20.20;99.90
33492;DHT22;20010;51.488;7.232;2022-08-16T01:37:44;20.20;99.90
33492;DHT22;20010;51.488;7.232;2022-08-16T01:40:23;20.20;99.90
33492;DHT22;20010;51.488;7.232;2022-08-16T01:42:52;20.20;99.90
33492;DHT22;20010;51.488;7.232;2022-08-16T01:45:21;20.20;99.90
33492;DHT22;20010;51.488;7.232;2022-08-16T01:47:50;20.20;99.90
33492;DHT22;20010;51.488;7.232;2022-08-16T01:50:19;20.20;99.90
33492;DHT22;20010;51.488;7.232;2022-08-16T01:53:06;20.20;99.90
33492;DHT22;20010;51.488;7.232;2022-08-16T01:55:35;20.20;99.90
33492;DHT22;20010;51.488;7.232;2022-08-16T01:58:06;20.20;99.90
33492;DHT22;20010;51.488;7.232;2022-08-16T02:00:36;20.20;99.90
33492;DHT22;20010;51.488;7.232;2022-08-16T02:03:03;20.20;99.90
33492;DHT22;20010;51.488;7.232;2022-08-16T02:05:30;20.20;99.90
33492;DHT22;20010;51.488;7.232;2022-08-16T02:08:01;20.20;99.90
33492;DHT22;20010;51.488;7.232;2022-08-16T02:10:30;20.20;99.90
33492;DHT22;20010;51.488;7.232;2022-08-16T02:13:00;20.20;99.90
33492;DHT22;20010;51.488;7.232;2022-08-16T02:15:28;20.20;99.90
33492;DHT22;20010;51.488;7.232;2022-08-16T02:18:02;20.20;99.90
33492;DHT22;20010;51.488;7.232;2022-08-16T02:20:33;20.20;99.90
33492;DHT22;20010;51.488;7.232;2022-08-16T02:23:06;20.20;99.90
33492;DHT22;20010;51.488;7.232;2022-08-16T02:25:33;20.10;99.90
33492;DHT22;20010;51.488;7.232;2022-08-16T02:28:17;20.20;99.90
33492;DHT22;20010;51.488;7.232;2022-08-16T02:30:45;20.10;99.90
33492;DHT22;20010;51.488;7.232;2022-08-16T02:33:18;20.20;99.90
33492;DHT22;20010;51.488;7.232;2022-08-16T02:35:51;20.20;99.90
33492;DHT22;20010;51.488;7.232;2022-08-16T02:38:25;20.20;99.90
33492;DHT22;20010;51.488;7.232;2022-08-16T02:40:53;20.10;99.90
33492;DHT22;20010;51.488;7.232;2022-08-16T02:43:24;20.20;99.90
33492;DHT22;20010;51.488;7.232;2022-08-16T02:45:54;20.10;99.90
33492;DHT22;20010;51.488;7.232;2022-08-16T02:48:22;20.10;99.90
33492;DHT22;20010;51.488;7.232;2022-08-16T02:51:00;20.10;99.90
33492;DHT22;20010;51.488;7.232;2022-08-16T02:53:40;20.10;99.90
33492;DHT22;20010;51.488;7.232;2022-08-16T02:56:10;20.00;99.90
33492;DHT22;20010;51.488;7.232;2022-08-16T02:58:41;20.00;99.90
33492;DHT22;20010;51.488;7.232;2022-08-16T03:01:10;20.00;99.90
33492;DHT22;20010;51.488;7.232;2022-08-16T03:03:58;20.00;99.90
33492;DHT22;20010;51.488;7.232;2022-08-16T03:06:46;20.00;99.90
33492;DHT22;20010;51.488;7.232;2022-08-16T03:09:16;19.90;99.90
33492;DHT22;20010;51.488;7.232;2022-08-16T03:11:43;19.90;99.90
33492;DHT22;20010;51.488;7.232;2022-08-16T03:14:11;19.90;99.90
33492;DHT22;20010;51.488;7.232;2022-08-16T03:16:38;19.80;99.90
33492;DHT22;20010;51.488;7.232;2022-08-16T03:19:25;19.80;99.90
33492;DHT22;20010;51.488;7.232;2022-08-16T03:22:12;19.80;99.90
33492;DHT22;20010;51.488;7.232;2022-08-16T03:24:53;19.70;99.90
33492;DHT22;20010;51.488;7.232;2022-08-16T03:27:24;19.70;99.90
33492;DHT22;20010;51.488;7.232;2022-08-16T03:29:58;19.70;99.90
33492;DHT22;20010;51.488;7.232;2022-08-16T03:32:25;19.60;99.90
33492;DHT22;20010;51.488;7.232;2022-08-16T03:34:52;19.50;99.90
33492;DHT22;20010;51.488;7.232;2022-08-16T03:37:19;19.50;99.90
33492;DHT22;20010;51.488;7.232;2022-08-16T03:39:46;19.50;99.90
33492;DHT22;20010;51.488;7.232;2022-08-16T03:42:13;19.50;99.90
33492;DHT22;20010;51.488;7.232;2022-08-16T03:44:48;19.40;99.90
33492;DHT22;20010;51.488;7.232;2022-08-16T03:47:16;19.40;99.90
33492;DHT22;20010;51.488;7.232;2022-08-16T03:49:46;19.30;99.90
33492;DHT22;20010;51.488;7.232;2022-08-16T03:52:18;19.30;99.90
33492;DHT22;20010;51.488;7.232;2022-08-16T03:54:49;19.30;99.90
33492;DHT22;20010;51.488;7.232;2022-08-16T03:57:23;19.20;99.90
33492;DHT22;20010;51.488;7.232;2022-08-16T03:59:57;19.20;99.90
33492;DHT22;20010;51.488;7.232;2022-08-16T04:02:26;19.20;99.90
33492;DHT22;20010;51.488;7.232;2022-08-16T04:04:57;19.10;99.90
33492;DHT22;20010;51.488;7.232;2022-08-16T04:07:24;19.10;99.90
33492;DHT22;20010;51.488;7.232;2022-08-16T04:09:51;19.10;99.90
33492;DHT22;20010;51.488;7.232;2022-08-16T04:12:18;19.00;99.90
33492;DHT22;20010;51.488;7.232;2022-08-16T04:15:08;19.00;99.90
33492;DHT22;20010;51.488;7.232;2022-08-16T04:17:35;18.90;99.90
33492;DHT22;20010;51.488;7.232;2022-08-16T04:20:04;19.00;99.90
33492;DHT22;20010;51.488;7.232;2022-08-16T04:22:54;19.00;99.90
33492;DHT22;20010;51.488;7.232;2022-08-16T04:25:21;18.90;99.90
33492;DHT22;20010;51.488;7.232;2022-08-16T04:27:49;18.90;99.90
33492;DHT22;20010;51.488;7.232;2022-08-16T04:30:22;18.90;99.90
33492;DHT22;20010;51.488;7.232;2022-08-16T04:32:58;18.90;99.90
33492;DHT22;20010;51.488;7.232;2022-08-16T04:35:26;18.80;99.90
33492;DHT22;20010;51.488;7.232;2022-08-16T04:38:00;18.80;99.90
33492;DHT22;20010;51.488;7.232;2022-08-16T04:40:46;18.80;99.90
33492;DHT22;20010;51.488;7.232;2022-08-16T04:43:16;18.80;99.90
33492;DHT22;20010;51.488;7.232;2022-08-16T04:45:44;18.80;99.90
33492;DHT22;20010;51.488;7.232;2022-08-16T04:48:11;18.80;99.90
33492;DHT22;20010;51.488;7.232;2022-08-16T04:50:58;18.80;99.90
33492;DHT22;20010;51.488;7.232;2022-08-16T04:53:25;18.80;99.90
33492;DHT22;20010;51.488;7.232;2022-08-16T04:55:54;18.80;99.90
33492;DHT22;20010;51.488;7.232;2022-08-16T04:58:21;18.80;99.90
33492;DHT22;20010;51.488;7.232;2022-08-16T05:01:08;18.80;99.90
33492;DHT22;20010;51.488;7.232;2022-08-16T05:03:34;18.70;99.90
33492;DHT22;20010;51.488;7.232;2022-08-16T05:06:08;18.80;99.90
33492;DHT22;20010;51.488;7.232;2022-08-16T05:08:36;18.80;99.90
33492;DHT22;20010;51.488;7.232;2022-08-16T05:11:06;18.70;99.90
33492;DHT22;20010;51.488;7.232;2022-08-16T05:13:37;18.80;99.90
33492;DHT22;20010;51.488;7.232;2022-08-16T05:16:15;18.80;99.90
33492;DHT22;20010;51.488;7.232;2022-08-16T05:18:51;18.80;99.90
33492;DHT22;20010;51.488;7.232;2022-08-16T05:21:19;18.80;99.90
33492;DHT22;20010;51.488;7.232;2022-08-16T05:23:51;18.80;99.90
33492;DHT22;20010;51.488;7.232;2022-08-16T05:26:22;18.80;99.90
33492;DHT22;20010;51.488;7.232;2022-08-16T05:28:49;18.90;99.90
33492;DHT22;20010;51.488;7.232;2022-08-16T05:31:25;18.90;99.90
33492;DHT22;20010;51.488;7.232;2022-08-16T05:33:57;18.90;99.90
33492;DHT22;20010;51.488;7.232;2022-08-16T05:36:23;18.90;99.90
33492;DHT22;20010;51.488;7.232;2022-08-16T05:39:07;19.00;99.90
33492;DHT22;20010;51.488;7.232;2022-08-16T05:41:36;18.90;99.90
33492;DHT22;20010;51.488;7.232;2022-08-16T05:44:15;19.00;99.90
33492;DHT22;20010;51.488;7.232;2022-08-16T05:46:55;19.10;99.90
33492;DHT22;20010;51.488;7.232;2022-08-16T05:49:23;19.10;99.90
33492;DHT22;20010;51.488;7.232;2022-08-16T05:52:04;19.10;99.90
33492;DHT22;20010;51.488;7.232;2022-08-16T05:54:43;19.20;99.90
33492;DHT22;20010;51.488;7.232;2022-08-16T05:57:24;19.20;99.90
33492;DHT22;20010;51.488;7.232;2022-08-16T06:00:00;19.30;99.90
33492;DHT22;20010;51.488;7.232;2022-08-16T06:02:34;19.30;99.90
33492;DHT22;20010;51.488;7.232;2022-08-16T06:05:04;19.40;99.90
33492;DHT22;20010;51.488;7.232;2022-08-16T06:07:31;19.50;99.90
33492;DHT22;20010;51.488;7.232;2022-08-16T06:09:59;19.50;99.90
33492;DHT22;20010;51.488;7.232;2022-08-16T06:12:28;19.60;99.90
33492;DHT22;20010;51.488;7.232;2022-08-16T06:14:58;19.60;99.90
33492;DHT22;20010;51.488;7.232;2022-08-16T06:17:27;19.60;99.90
33492;DHT22;20010;51.488;7.232;2022-08-16T06:20:16;19.80;99.90
33492;DHT22;20010;51.488;7.232;2022-08-16T06:22:54;19.80;99.90
33492;DHT22;20010;51.488;7.232;2022-08-16T06:25:31;19.80;99.90
33492;DHT22;20010;51.488;7.232;2022-08-16T06:28:06;19.80;99.90
33492;DHT22;20010;51.488;7.232;2022-08-16T06:30:34;19.90;99.90
33492;DHT22;20010;51.488;7.232;2022-08-16T06:33:10;19.90;99.90
33492;DHT22;20010;51.488;7.232;2022-08-16T06:35:38;19.90;99.90
33492;DHT22;20010;51.488;7.232;2022-08-16T06:38:07;20.00;99.90
33492;DHT22;20010;51.488;7.232;2022-08-16T06:40:56;20.00;99.90
33492;DHT22;20010;51.488;7.232;2022-08-16T06:43:23;20.10;99.90
33492;DHT22;20010;51.488;7.232;2022-08-16T06:45:53;20.10;99.90
33492;DHT22;20010;51.488;7.232;2022-08-16T06:48:20;20.10;99.90
33492;DHT22;20010;51.488;7.232;2022-08-16T06:51:01;20.20;99.90
33492;DHT22;20010;51.488;7.232;2022-08-16T06:53:29;20.30;99.90
33492;DHT22;20010;51.488;7.232;2022-08-16T06:56:03;20.30;99.90
33492;DHT22;20010;51.488;7.232;2022-08-16T06:58:40;20.30;99.90
33492;DHT22;20010;51.488;7.232;2022-08-16T07:01:10;20.40;99.90
33492;DHT22;20010;51.488;7.232;2022-08-16T07:03:41;20.40;99.90
33492;DHT22;20010;51.488;7.232;2022-08-16T07:06:23;20.50;99.90
33492;DHT22;20010;51.488;7.232;2022-08-16T07:08:53;20.60;99.90
33492;DHT22;20010;51.488;7.232;2022-08-16T07:11:20;20.70;99.90
33492;DHT22;20010;51.488;7.232;2022-08-16T07:14:07;20.70;99.90
33492;DHT22;20010;51.488;7.232;2022-08-16T07:16:56;20.80;99.90
33492;DHT22;20010;51.488;7.232;2022-08-16T07:19:27;20.80;99.90
33492;DHT22;20010;51.488;7.232;2022-08-16T07:22:15;20.80;99.90
33492;DHT22;20010;51.488;7.232;2022-08-16T07:25:05;20.80;99.90
33492;DHT22;20010;51.488;7.232;2022-08-16T07:27:33;20.90;99.90
33492;DHT22;20010;51.488;7.232;2022-08-16T07:30:06;21.00;99.90
33492;DHT22;20010;51.488;7.232;2022-08-16T07:32:53;21.00;99.90
33492;DHT22;20010;51.488;7.232;2022-08-16T07:35:21;21.10;99.90
33492;DHT22;20010;51.488;7.232;2022-08-16T07:37:48;21.10;99.90
33492;DHT22;20010;51.488;7.232;2022-08-16T07:40:15;21.10;99.90
33492;DHT22;20010;51.488;7.232;2022-08-16T07:42:42;21.20;99.90
33492;DHT22;20010;51.488;7.232;2022-08-16T07:45:11;21.30;99.90
33492;DHT22;20010;51.488;7.232;2022-08-16T07:47:38;21.30;99.90
33492;DHT22;20010;51.488;7.232;2022-08-16T07:50:08;21.40;99.90
33492;DHT22;20010;51.488;7.232;2022-08-16T07:52:55;21.40;99.90
33492;DHT22;20010;51.488;7.232;2022-08-16T07:55:25;21.50;99.90
33492;DHT22;20010;51.488;7.232;2022-08-16T07:57:53;21.60;99.90
33492;DHT22;20010;51.488;7.232;2022-08-16T08:00:29;21.70;99.90
33492;DHT22;20010;51.488;7.232;2022-08-16T08:02:56;21.80;99.90
33492;DHT22;20010;51.488;7.232;2022-08-16T08:05:24;21.90;99.90
33492;DHT22;20010;51.488;7.232;2022-08-16T08:08:02;21.90;99.90
33492;DHT22;20010;51.488;7.232;2022-08-16T08:10:50;22.00;99.90
33492;DHT22;20010;51.488;7.232;2022-08-16T08:13:17;22.10;99.90
33492;DHT22;20010;51.488;7.232;2022-08-16T08:15:44;22.20;99.90
33492;DHT22;20010;51.488;7.232;2022-08-16T08:18:18;22.30;99.90
33492;DHT22;20010;51.488;7.232;2022-08-16T08:20:57;22.30;99.90
33492;DHT22;20010;51.488;7.232;2022-08-16T08:23:25;22.40;99.90
33492;DHT22;20010;51.488;7.232;2022-08-16T08:25:53;22.50;99.90
33492;DHT22;20010;51.488;7.232;2022-08-16T08:28:21;22.50;99.90
33492;DHT22;20010;51.488;7.232;2022-08-16T08:30:48;22.60;99.90
33492;DHT22;20010;51.488;7.232;2022-08-16T08:33:27;22.60;99.90
33492;DHT22;20010;51.488;7.232;2022-08-16T08:35:57;22.70;99.90
33492;DHT22;20010;51.488;7.232;2022-08-16T08:38:28;22.70;99.90
33492;DHT22;20010;51.488;7.232;2022-08-16T08:41:12;22.80;99.90
33492;DHT22;20010;51.488;7.232;2022-08-16T08:43:45;22.90;99.90
33492;DHT22;20010;51.488;7.232;2022-08-16T08:46:16;23.00;99.90
33492;DHT22;20010;51.488;7.232;2022-08-16T08:48:52;23.00;99.90
33492;DHT22;20010;51.488;7.232;2022-08-16T08:51:26;23.10;99.90
33492;DHT22;20010;51.488;7.232;2022-08-16T08:53:57;23.20;99.90
33492;DHT22;20010;51.488;7.232;2022-08-16T08:56:24;23.30;99.90
33492;DHT22;20010;51.488;7.232;2022-08-16T08:58:52;23.40;99.90
33492;DHT22;20010;51.488;7.232;2022-08-16T09:01:30;23.30;99.90
33492;DHT22;20010;51.488;7.232;2022-08-16T09:04:09;23.40;99.90
33492;DHT22;20010;51.488;7.232;2022-08-16T09:06:43;23.40;99.90
33492;DHT22;20010;51.488;7.232;2022-08-16T09:09:10;23.50;99.90
33492;DHT22;20010;51.488;7.232;2022-08-16T09:11:43;23.60;99.90
33492;DHT22;20010;51.488;7.232;2022-08-16T09:14:15;23.70;99.90
33492;DHT22;20010;51.488;7.232;2022-08-16T09:16:50;23.70;99.90
33492;DHT22;20010;51.488;7.232;2022-08-16T09:19:37;23.80;99.90
33492;DHT22;20010;51.488;7.232;2022-08-16T09:22:08;23.80;99.90
33492;DHT22;20010;51.488;7.232;2022-08-16T09:24:48;23.90;99.90
33492;DHT22;20010;51.488;7.232;2022-08-16T09:27:22;24.10;99.90
33492;DHT22;20010;51.488;7.232;2022-08-16T09:29:52;24.30;99.90
33492;DHT22;20010;51.488;7.232;2022-08-16T09:32:28;24.30;99.90
33492;DHT22;20010;51.488;7.232;2022-08-16T09:34:58;24.30;99.90
33492;DHT22;20010;51.488;7.232;2022-08-16T09:37:28;24.30;99.90
33492;DHT22;20010;51.488;7.232;2022-08-16T09:40:04;24.40;99.90
33492;DHT22;20010;51.488;7.232;2022-08-16T09:42:52;24.40;99.90
33492;DHT22;20010;51.488;7.232;2022-08-16T09:45:31;24.50;99.90
33492;DHT22;20010;51.488;7.232;2022-08-16T09:48:06;24.70;99.90
33492;DHT22;20010;51.488;7.232;2022-08-16T09:50:34;24.70;99.90
33492;DHT22;20010;51.488;7.232;2022-08-16T09:53:09;24.80;99.90
33492;DHT22;20010;51.488;7.232;2022-08-16T09:55:44;24.90;99.90
33492;DHT22;20010;51.488;7.232;2022-08-16T09:58:19;25.00;99.90
33492;DHT22;20010;51.488;7.232;2022-08-16T10:01:19;25.00;99.90
33492;DHT22;20010;51.488;7.232;2022-08-16T10:04:01;25.20;99.90
33492;DHT22;20010;51.488;7.232;2022-08-16T10:06:32;25.20;99.90
33492;DHT22;20010;51.488;7.232;2022-08-16T10:09:03;25.30;99.90
33492;DHT22;20010;51.488;7.232;2022-08-16T10:11:36;25.50;99.90
33492;DHT22;20010;51.488;7.232;2022-08-16T10:14:37;25.40;99.90
33492;DHT22;20010;51.488;7.232;2022-08-16T10:17:11;25.40;99.90
33492;DHT22;20010;51.488;7.232;2022-08-16T10:19:38;25.30;99.90
33492;DHT22;20010;51.488;7.232;2022-08-16T10:22:40;25.50;99.90
33492;DHT22;20010;51.488;7.232;2022-08-16T10:25:07;25.50;99.90
33492;DHT22;20010;51.488;7.232;2022-08-16T10:27:34;25.70;99.90
33492;DHT22;20010;51.488;7.232;2022-08-16T10:30:22;25.90;99.90
33492;DHT22;20010;51.488;7.232;2022-08-16T10:32:52;26.00;99.90
33492;DHT22;20010;51.488;7.232;2022-08-16T10:35:19;26.10;99.90
33492;DHT22;20010;51.488;7.232;2022-08-16T10:37:48;26.10;99.90
33492;DHT22;20010;51.488;7.232;2022-08-16T10:40:36;26.30;99.90
33492;DHT22;20010;51.488;7.232;2022-08-16T10:43:03;26.40;99.90
33492;DHT22;20010;51.488;7.232;2022-08-16T10:45:34;26.50;99.90
33492;DHT22;20010;51.488;7.232;2022-08-16T10:48:04;26.60;99.90
33492;DHT22;20010;51.488;7.232;2022-08-16T10:50:52;26.70;99.90
33492;DHT22;20010;51.488;7.232;2022-08-16T10:53:28;26.70;99.90
33492;DHT22;20010;51.488;7.232;2022-08-16T10:56:00;26.60;99.90
33492;DHT22;20010;51.488;7.232;2022-08-16T10:58:29;26.80;99.90
33492;DHT22;20010;51.488;7.232;2022-08-16T11:01:04;26.80;99.90
33492;DHT22;20010;51.488;7.232;2022-08-16T11:03:52;26.90;99.90
33492;DHT22;20010;51.488;7.232;2022-08-16T11:06:23;27.00;99.90
33492;DHT22;20010;51.488;7.232;2022-08-16T11:08:55;27.10;99.50
33492;DHT22;20010;51.488;7.232;2022-08-16T11:11:41;27.10;98.90
33492;DHT22;20010;51.488;7.232;2022-08-16T11:14:28;27.20;99.00
33492;DHT22;20010;51.488;7.232;2022-08-16T11:16:58;27.30;98.70
33492;DHT22;20010;51.488;7.232;2022-08-16T11:19:35;27.50;99.30
33492;DHT22;20010;51.488;7.232;2022-08-16T11:22:22;27.50;98.50
33492;DHT22;20010;51.488;7.232;2022-08-16T11:25:10;27.40;98.00
33492;DHT22;20010;51.488;7.232;2022-08-16T11:27:41;27.40;97.70
33492;DHT22;20010;51.488;7.232;2022-08-16T11:30:12;27.50;97.40
33492;DHT22;20010;51.488;7.232;2022-08-16T11:32:46;27.80;97.70
33492;DHT22;20010;51.488;7.232;2022-08-16T11:35:23;28.00;97.60
33492;DHT22;20010;51.488;7.232;2022-08-16T11:38:14;28.10;97.30
33492;DHT22;20010;51.488;7.232;2022-08-16T11:41:01;28.20;97.10
33492;DHT22;20010;51.488;7.232;2022-08-16T11:43:33;28.50;97.20
33492;DHT22;20010;51.488;7.232;2022-08-16T11:46:05;28.40;95.70
33492;DHT22;20010;51.488;7.232;2022-08-16T11:48:53;28.50;95.50
33492;DHT22;20010;51.488;7.232;2022-08-16T11:51:20;28.80;95.10
33492;DHT22;20010;51.488;7.232;2022-08-16T11:53:47;28.80;94.60
33492;DHT22;20010;51.488;7.232;2022-08-16T11:56:14;28.90;94.50
33492;DHT22;20010;51.488;7.232;2022-08-16T11:58:45;28.50;94.40
33492;DHT22;20010;51.488;7.232;2022-08-16T12:01:22;28.30;94.30
33492;DHT22;20010;51.488;7.232;2022-08-16T12:03:55;28.50;93.50
33492;DHT22;20010;51.488;7.232;2022-08-16T12:06:22;28.70;91.80
33492;DHT22;20010;51.488;7.232;2022-08-16T12:08:53;28.80;92.20
33492;DHT22;20010;51.488;7.232;2022-08-16T12:11:27;28.90;91.40
33492;DHT22;20010;51.488;7.232;2022-08-16T12:14:00;28.80;91.20
33492;DHT22;20010;51.488;7.232;2022-08-16T12:16:30;28.60;92.10
33492;DHT22;20010;51.488;7.232;2022-08-16T12:19:02;28.30;92.90
33492;DHT22;20010;51.488;7.232;2022-08-16T12:21:31;28.40;93.70
33492;DHT22;20010;51.488;7.232;2022-08-16T12:24:19;28.60;92.80
33492;DHT22;20010;51.488;7.232;2022-08-16T12:26:49;28.70;92.60
33492;DHT22;20010;51.488;7.232;2022-08-16T12:29:16;29.00;91.10
33492;DHT22;20010;51.488;7.232;2022-08-16T12:31:43;29.30;89.80
33492;DHT22;20010;51.488;7.232;2022-08-16T12:34:30;29.20;89.60
33492;DHT22;20010;51.488;7.232;2022-08-16T12:37:00;29.20;90.20
33492;DHT22;20010;51.488;7.232;2022-08-16T12:39:28;29.20;90.50
33492;DHT22;20010;51.488;7.232;2022-08-16T12:41:56;29.30;89.80
33492;DHT22;20010;51.488;7.232;2022-08-16T12:44:23;29.50;90.00
33492;DHT22;20010;51.488;7.232;2022-08-16T12:46:57;29.60;89.40
33492;DHT22;20010;51.488;7.232;2022-08-16T12:49:43;29.80;87.70
33492;DHT22;20010;51.488;7.232;2022-08-16T12:52:11;29.80;88.80
33492;DHT22;20010;51.488;7.232;2022-08-16T12:54:58;29.90;87.60
33492;DHT22;20010;51.488;7.232;2022-08-16T12:57:25;29.70;87.00
33492;DHT22;20010;51.488;7.232;2022-08-16T13:00:05;29.50;86.70
33492;DHT22;20010;51.488;7.232;2022-08-16T13:02:33;29.40;88.80
33492;DHT22;20010;51.488;7.232;2022-08-16T13:05:03;29.60;89.20
33492;DHT22;20010;51.488;7.232;2022-08-16T13:07:32;29.90;88.50
33492;DHT22;20010;51.488;7.232;2022-08-16T13:10:10;29.80;85.80
33492;DHT22;20010;51.488;7.232;2022-08-16T13:12:59;29.80;84.90
33492;DHT22;20010;51.488;7.232;2022-08-16T13:15:27;29.80;86.10
33492;DHT22;20010;51.488;7.232;2022-08-16T13:17:55;29.60;84.80
33492;DHT22;20010;51.488;7.232;2022-08-16T13:20:26;29.20;86.40
33492;DHT22;20010;51.488;7.232;2022-08-16T13:23:03;29.00;88.20
33492;DHT22;20010;51.488;7.232;2022-08-16T13:25:33;29.00;88.40
33492;DHT22;20010;51.488;7.232;2022-08-16T13:28:00;28.80;88.50
33492;DHT22;20010;51.488;7.232;2022-08-16T13:30:54;28.90;88.60
33492;DHT22;20010;51.488;7.232;2022-08-16T13:33:26;29.30;88.90
33492;DHT22;20010;51.488;7.232;2022-08-16T13:36:00;29.30;84.80
33492;DHT22;20010;51.488;7.232;2022-08-16T13:38:27;29.20;85.70
33492;DHT22;20010;51.488;7.232;2022-08-16T13:41:04;29.50;87.70
33492;DHT22;20010;51.488;7.232;2022-08-16T13:43:34;29.90;87.80
33492;DHT22;20010;51.488;7.232;2022-08-16T13:46:01;30.30;85.40
33492;DHT22;20010;51.488;7.232;2022-08-16T13:48:31;30.70;84.90
33492;DHT22;20010;51.488;7.232;2022-08-16T13:51:12;30.80;82.00
33492;DHT22;20010;51.488;7.232;2022-08-16T13:53:47;31.00;82.60
33492;DHT22;20010;51.488;7.232;2022-08-16T13:56:26;31.10;80.00
33492;DHT22;20010;51.488;7.232;2022-08-16T13:59:04;31.20;80.90
33492;DHT22;20010;51.488;7.232;2022-08-16T14:01:43;31.70;81.60
33492;DHT22;20010;51.488;7.232;2022-08-16T14:04:10;31.90;78.50
33492;DHT22;20010;51.488;7.232;2022-08-16T14:06:48;32.00;78.10
33492;DHT22;20010;51.488;7.232;2022-08-16T14:09:15;32.00;77.30
33492;DHT22;20010;51.488;7.232;2022-08-16T14:11:45;31.60;77.30
33492;DHT22;20010;51.488;7.232;2022-08-16T14:14:15;31.70;77.10
33492;DHT22;20010;51.488;7.232;2022-08-16T14:16:43;31.70;76.20
33492;DHT22;20010;51.488;7.232;2022-08-16T14:19:10;31.50;76.10
33492;DHT22;20010;51.488;7.232;2022-08-16T14:21:48;31.20;76.50
33492;DHT22;20010;51.488;7.232;2022-08-16T14:24:27;31.30;76.80
33492;DHT22;20010;51.488;7.232;2022-08-16T14:26:56;31.10;77.20
33492;DHT22;20010;51.488;7.232;2022-08-16T14:29:23;31.20;78.60
33492;DHT22;20010;51.488;7.232;2022-08-16T14:31:57;30.90;79.30
33492;DHT22;20010;51.488;7.232;2022-08-16T14:34:24;30.40;80.30
33492;DHT22;20010;51.488;7.232;2022-08-16T14:36:55;30.10;81.20
33492;DHT22;20010;51.488;7.232;2022-08-16T14:39:25;29.80;81.90
33492;DHT22;20010;51.488;7.232;2022-08-16T14:41:52;29.60;82.90
33492;DHT22;20010;51.488;7.232;2022-08-16T14:44:22;29.30;82.70
33492;DHT22;20010;51.488;7.232;2022-08-16T14:46:51;29.10;84.10
33492;DHT22;20010;51.488;7.232;2022-08-16T14:49:18;29.10;84.80
33492;DHT22;20010;51.488;7.232;2022-08-16T14:51:46;28.90;84.00
33492;DHT22;20010;51.488;7.232;2022-08-16T14:54:14;28.90;84.20
33492;DHT22;20010;51.488;7.232;2022-08-16T14:56:41;28.90;84.10
33492;DHT22;20010;51.488;7.232;2022-08-16T14:59:21;28.90;85.40
33492;DHT22;20010;51.488;7.232;2022-08-16T15:01:47;29.00;85.30
33492;DHT22;20010;51.488;7.232;2022-08-16T15:04:27;29.00;85.00
33492;DHT22;20010;51.488;7.232;2022-08-16T15:07:13;29.00;84.10
33492;DHT22;20010;51.488;7.232;2022-08-16T15:09:42;28.90;84.30
33492;DHT22;20010;51.488;7.232;2022-08-16T15:12:27;28.80;84.80
33492;DHT22;20010;51.488;7.232;2022-08-16T15:15:01;28.90;85.20
33492;DHT22;20010;51.488;7.232;2022-08-16T15:17:37;29.00;85.60
33492;DHT22;20010;51.488;7.232;2022-08-16T15:20:05;29.30;84.50
33492;DHT22;20010;51.488;7.232;2022-08-16T15:22:39;29.20;83.30
33492;DHT22;20010;51.488;7.232;2022-08-16T15:25:12;29.10;83.10
33492;DHT22;20010;51.488;7.232;2022-08-16T15:27:41;29.10;84.10
33492;DHT22;20010;51.488;7.232;2022-08-16T15:30:13;29.20;83.40
33492;DHT22;20010;51.488;7.232;2022-08-16T15:33:37;29.20;84.00
33492;DHT22;20010;51.488;7.232;2022-08-16T15:35:58;29.30;85.00
33492;DHT22;20010;51.488;7.232;2022-08-16T15:38:27;29.00;82.60
33492;DHT22;20010;51.488;7.232;2022-08-16T15:44:18;28.80;84.20
33492;DHT22;20010;51.488;7.232;2022-08-16T15:46:49;28.80;83.00
33492;DHT22;20010;51.488;7.232;2022-08-16T15:49:24;29.00;82.30
33492;DHT22;20010;51.488;7.232;2022-08-16T15:52:21;29.00;82.70
33492;DHT22;20010;51.488;7.232;2022-08-16T15:54:57;29.30;83.20
33492;DHT22;20010;51.488;7.232;2022-08-16T15:57:27;29.10;82.50
33492;DHT22;20010;51.488;7.232;2022-08-16T16:00:05;28.80;83.00
33492;DHT22;20010;51.488;7.232;2022-08-16T16:02:42;28.70;84.20
33492;DHT22;20010;51.488;7.232;2022-08-16T16:05:09;28.60;83.60
33492;DHT22;20010;51.488;7.232;2022-08-16T16:07:37;28.60;83.30
33492;DHT22;20010;51.488;7.232;2022-08-16T16:10:22;28.50;83.70
33492;DHT22;20010;51.488;7.232;2022-08-16T16:12:57;28.40;84.70
33492;DHT22;20010;51.488;7.232;2022-08-16T16:15:29;28.40;84.90
33492;DHT22;20010;51.488;7.232;2022-08-16T16:17:57;28.40;84.90
33492;DHT22;20010;51.488;7.232;2022-08-16T16:20:36;28.30;84.10